Time;durP1;ratioP1;P1;durP2;ratioP2;P2;SDS_P1;SDS_P2;PMS_P1;PMS_P2;Temp;Humidity;BMP_temperature;BMP_pressure;BME280_temperature;BME280_humidity;BME280_pressure;Samples;Min_cycle;Max_cycle;Signal;HPM_P1;HPM_P2
2022/01/05 00:00:16;;;;;;;10.90;2.63;;;;;;;-145.18;100.00;60484.78;5023285;28;20071;-68
2022/01/05 00:02:41;;;;;;;11.37;1.90;;;;;;;-145.18;100.00;60484.78;5021836;28;20069;-66
2022/01/05 00:05:08;;;;;;;4.83;1.40;;;;;;;-145.18;100.00;60484.78;5020171;28;20049;-66
2022/01/05 00:07:33;;;;;;;6.20;1.87;;;;;;;-145.18;100.00;60484.78;5021488;28;20240;-66
2022/01/05 00:09:59;;;;;;;16.27;2.07;;;;;;;-145.18;100.00;60484.78;5021308;28;20033;-66
2022/01/05 00:12:24;;;;;;;7.40;1.70;;;;;;;-145.18;100.00;60484.78;5016962;28;20199;-66
2022/01/05 00:14:50;;;;;;;7.70;1.70;;;;;;;-145.18;100.00;60484.78;5022503;28;20116;-66
2022/01/05 00:17:16;;;;;;;7.33;1.87;;;;;;;-145.18;100.00;60484.78;5021981;28;20033;-66
2022/01/05 00:19:41;;;;;;;5.77;1.20;;;;;;;-145.18;100.00;60484.78;5022338;28;20132;-66
2022/01/05 00:22:07;;;;;;;5.67;1.47;;;;;;;-145.18;100.00;60484.78;5022126;28;20025;-66
2022/01/05 00:24:33;;;;;;;6.00;1.43;;;;;;;-145.18;100.00;60484.78;5022385;28;20505;-66
2022/01/05 00:26:58;;;;;;;5.10;1.80;;;;;;;-145.18;100.00;60484.78;5020659;28;20167;-66
2022/01/05 00:29:24;;;;;;;12.10;2.53;;;;;;;-145.18;100.00;60484.78;5015069;28;20029;-66
2022/01/05 00:31:50;;;;;;;5.43;1.80;;;;;;;-145.18;100.00;60484.78;5019168;28;20034;-66
2022/01/05 00:34:15;;;;;;;10.40;2.17;;;;;;;-145.18;100.00;60484.78;5020290;28;20033;-66
2022/01/05 00:36:41;;;;;;;7.20;2.03;;;;;;;-145.18;100.00;60484.78;5020619;28;20281;-67
2022/01/05 00:39:06;;;;;;;4.43;1.20;;;;;;;-145.18;100.00;60484.78;5017683;28;20045;-67
2022/01/05 00:41:32;;;;;;;5.27;1.60;;;;;;;-145.18;100.00;60484.78;5021097;28;20029;-67
2022/01/05 00:43:57;;;;;;;8.33;1.87;;;;;;;-145.18;100.00;60484.78;5014683;28;20457;-67
2022/01/05 00:46:23;;;;;;;4.43;1.30;;;;;;;-145.18;100.00;60484.78;5016373;28;20026;-67
2022/01/05 00:48:48;;;;;;;8.50;1.30;;;;;;;-145.18;100.00;60484.78;5019849;28;20037;-67
2022/01/05 00:51:15;;;;;;;6.47;1.70;;;;;;;-145.18;100.00;60484.78;5013197;28;20041;-67
2022/01/05 00:53:41;;;;;;;7.40;1.60;;;;;;;-145.18;100.00;60484.78;5019167;28;20440;-67
2022/01/05 00:56:06;;;;;;;6.93;2.03;;;;;;;-145.18;100.00;60484.78;5018664;28;20037;-67
2022/01/05 00:58:32;;;;;;;10.83;2.50;;;;;;;-145.18;100.00;60484.78;5015385;28;20412;-67
2022/01/05 01:00:57;;;;;;;7.43;1.73;;;;;;;-145.18;100.00;60484.78;5012075;28;20509;-67
2022/01/05 01:03:23;;;;;;;1.93;1.00;;;;;;;-145.18;100.00;60484.78;5014102;28;20610;-67
2022/01/05 01:05:48;;;;;;;8.97;2.07;;;;;;;-145.18;100.00;60484.78;5016456;28;20053;-67
2022/01/05 01:08:14;;;;;;;6.37;2.27;;;;;;;-145.18;100.00;60484.78;5020670;28;20175;-67
2022/01/05 01:10:39;;;;;;;6.50;1.43;;;;;;;-145.18;100.00;60484.78;5013998;28;20415;-67
2022/01/05 01:13:05;;;;;;;6.90;1.53;;;;;;;-145.18;100.00;60484.78;5020253;28;20113;-67
2022/01/05 01:15:31;;;;;;;8.97;1.63;;;;;;;-145.18;100.00;60484.78;5020072;28;20037;-67
2022/01/05 01:17:56;;;;;;;9.67;1.60;;;;;;;-145.18;100.00;60484.78;5011520;28;20105;-66
2022/01/05 01:20:22;;;;;;;14.47;2.23;;;;;;;-145.18;100.00;60484.78;5009202;28;20038;-67
2022/01/05 01:22:49;;;;;;;6.07;2.00;;;;;;;-145.18;100.00;60484.78;5012578;28;20267;-67
2022/01/05 01:25:15;;;;;;;7.00;1.60;;;;;;;-145.18;100.00;60484.78;5013320;28;20409;-67
2022/01/05 01:27:42;;;;;;;8.93;2.23;;;;;;;-145.18;100.00;60484.78;5015089;28;20091;-67
2022/01/05 01:30:10;;;;;;;7.30;1.70;;;;;;;-145.18;100.00;60484.78;5012346;28;20029;-67
2022/01/05 01:32:36;;;;;;;6.13;1.23;;;;;;;-145.18;100.00;60484.78;5014869;28;20111;-67
2022/01/05 01:35:03;;;;;;;4.60;1.67;;;;;;;-145.18;100.00;60484.78;5013545;28;20108;-67
2022/01/05 01:37:29;;;;;;;7.70;1.73;;;;;;;-145.18;100.00;60484.78;5017765;28;20025;-67
2022/01/05 01:39:54;;;;;;;7.07;1.80;;;;;;;-145.18;100.00;60484.78;5019006;28;20318;-67
2022/01/05 01:42:20;;;;;;;4.70;1.70;;;;;;;-145.18;100.00;60484.78;5015336;28;20160;-66
2022/01/05 01:44:45;;;;;;;13.93;2.80;;;;;;;-145.18;100.00;60484.78;5011918;28;20030;-66
2022/01/05 01:47:10;;;;;;;7.60;1.37;;;;;;;-145.18;100.00;60484.78;5019057;28;20029;-67
2022/01/05 01:49:36;;;;;;;7.93;1.80;;;;;;;-145.18;100.00;60484.78;5016322;28;20029;-66
2022/01/05 01:52:01;;;;;;;12.63;1.63;;;;;;;-145.18;100.00;60484.78;5011084;28;20040;-67
2022/01/05 01:54:28;;;;;;;6.97;1.43;;;;;;;-145.18;100.00;60484.78;5017153;28;20221;-66
2022/01/05 01:56:54;;;;;;;7.57;1.43;;;;;;;-145.18;100.00;60484.78;5020226;28;20386;-67
2022/01/05 01:59:20;;;;;;;9.67;1.93;;;;;;;-145.18;100.00;60484.78;5015508;28;20178;-66
2022/01/05 02:01:46;;;;;;;5.97;1.60;;;;;;;-145.18;100.00;60484.78;5011079;28;20068;-66
2022/01/05 02:04:11;;;;;;;10.90;2.20;;;;;;;-145.18;100.00;60484.78;5015584;28;20060;-66
2022/01/05 02:06:37;;;;;;;8.27;2.27;;;;;;;-145.18;100.00;60484.78;5019344;28;20032;-67
2022/01/05 02:09:04;;;;;;;15.40;1.63;;;;;;;-145.18;100.00;60484.78;5016602;28;20514;-66
2022/01/05 02:11:31;;;;;;;7.30;1.97;;;;;;;-145.18;100.00;60484.78;5019293;28;20666;-66
2022/01/05 02:13:56;;;;;;;5.67;2.00;;;;;;;-145.18;100.00;60484.78;5013580;28;20183;-67
2022/01/05 02:16:29;;;;;;;5.50;1.73;;;;;;;-145.18;100.00;60484.78;5019746;28;20108;-66
2022/01/05 02:18:58;;;;;;;3.77;1.27;;;;;;;-145.18;100.00;60484.78;5019061;28;20386;-66
2022/01/05 02:21:24;;;;;;;12.67;2.50;;;;;;;-145.18;100.00;60484.78;5018444;28;20296;-66
2022/01/05 02:23:50;;;;;;;4.03;1.30;;;;;;;-145.18;100.00;60484.78;5009780;28;20033;-66
2022/01/05 02:26:16;;;;;;;7.53;2.10;;;;;;;-145.18;100.00;60484.78;5014274;28;20192;-66
2022/01/05 02:28:43;;;;;;;4.63;1.77;;;;;;;-145.18;100.00;60484.78;5018847;28;20038;-66
2022/01/05 02:31:09;;;;;;;8.00;1.90;;;;;;;-145.18;100.00;60484.78;5019553;28;20025;-67
2022/01/05 02:33:35;;;;;;;12.67;2.00;;;;;;;-145.18;100.00;60484.78;5013387;28;20060;-66
2022/01/05 02:36:01;;;;;;;5.50;1.10;;;;;;;-145.18;100.00;60484.78;5012830;28;20034;-66
2022/01/05 02:38:27;;;;;;;2.73;1.13;;;;;;;-145.18;100.00;60484.78;5016975;28;20045;-66
2022/01/05 02:40:52;;;;;;;5.17;1.63;;;;;;;-145.18;100.00;60484.78;5017027;28;20041;-66
2022/01/05 02:43:18;;;;;;;5.67;1.20;;;;;;;-145.18;100.00;60484.78;5018135;28;20033;-66
2022/01/05 02:45:44;;;;;;;6.97;1.37;;;;;;;-145.18;100.00;60484.78;5013664;28;20041;-66
2022/01/05 02:48:10;;;;;;;10.13;1.50;;;;;;;-145.18;100.00;60484.78;5013661;28;20029;-66
2022/01/05 02:50:35;;;;;;;6.63;1.60;;;;;;;-145.18;100.00;60484.78;5017474;28;20108;-66
2022/01/05 02:53:01;;;;;;;7.33;1.17;;;;;;;-145.18;100.00;60484.78;5017616;28;20033;-66
2022/01/05 02:55:26;;;;;;;3.80;1.30;;;;;;;-145.18;100.00;60484.78;5015391;28;20033;-66
2022/01/05 02:57:52;;;;;;;4.53;1.10;;;;;;;-145.18;100.00;60484.78;5016162;28;20117;-66
2022/01/05 03:00:17;;;;;;;8.27;1.13;;;;;;;-145.18;100.00;60484.78;5012993;28;20068;-66
2022/01/05 03:02:44;;;;;;;8.73;1.20;;;;;;;-145.18;100.00;60484.78;5013102;28;20182;-66
2022/01/05 03:05:10;;;;;;;7.43;1.20;;;;;;;-145.18;100.00;60484.78;5012770;28;20300;-66
2022/01/05 03:07:39;;;;;;;6.70;1.60;;;;;;;-145.18;100.00;60484.78;5014168;28;20053;-66
2022/01/05 03:10:06;;;;;;;5.20;1.43;;;;;;;-145.18;100.00;60484.78;5017674;28;20108;-66
2022/01/05 03:12:32;;;;;;;6.77;1.70;;;;;;;-145.18;100.00;60484.78;5017568;28;20040;-67
2022/01/05 03:14:57;;;;;;;4.00;1.27;;;;;;;-145.18;100.00;60484.78;5018291;28;20514;-67
2022/01/05 03:17:23;;;;;;;6.87;1.60;;;;;;;-145.18;100.00;60484.78;5014229;28;20454;-67
2022/01/05 03:19:48;;;;;;;7.23;1.77;;;;;;;-145.18;100.00;60484.78;5010481;28;20041;-67
2022/01/05 03:22:14;;;;;;;7.83;1.10;;;;;;;-145.18;100.00;60484.78;5011538;28;20041;-67
2022/01/05 03:24:39;;;;;;;2.07;1.00;;;;;;;-145.18;100.00;60484.78;5011732;28;20189;-67
2022/01/05 03:27:05;;;;;;;6.60;1.50;;;;;;;-145.18;100.00;60484.78;5013637;28;20441;-67
2022/01/05 03:29:30;;;;;;;5.43;1.27;;;;;;;-145.18;100.00;60484.78;5016838;28;20264;-67
2022/01/05 03:31:56;;;;;;;10.13;1.87;;;;;;;-145.18;100.00;60484.78;5017993;28;20067;-67
2022/01/05 03:34:22;;;;;;;6.53;1.33;;;;;;;-145.18;100.00;60484.78;5012778;28;20601;-67
2022/01/05 03:36:48;;;;;;;8.00;1.93;;;;;;;-145.18;100.00;60484.78;5018094;28;20029;-67
2022/01/05 03:39:13;;;;;;;3.57;1.00;;;;;;;-145.18;100.00;60484.78;5014455;28;20155;-67
2022/01/05 03:41:39;;;;;;;9.40;2.07;;;;;;;-145.18;100.00;60484.78;5007166;28;20124;-67
2022/01/05 03:44:05;;;;;;;6.03;1.20;;;;;;;-145.18;100.00;60484.78;5013354;28;20509;-67
2022/01/05 03:46:31;;;;;;;6.07;1.27;;;;;;;-145.18;100.00;60484.78;5005750;28;20040;-67
2022/01/05 03:48:57;;;;;;;3.40;1.30;;;;;;;-145.18;100.00;60484.78;5013530;28;20021;-67
2022/01/05 03:51:22;;;;;;;7.80;1.87;;;;;;;-145.18;100.00;60484.78;5015147;28;20029;-67
2022/01/05 03:53:48;;;;;;;13.30;1.90;;;;;;;-145.18;100.00;60484.78;5012990;28;20041;-67
2022/01/05 03:56:13;;;;;;;5.57;1.30;;;;;;;-145.18;100.00;60484.78;5012768;28;20115;-67
2022/01/05 03:58:39;;;;;;;8.70;1.60;;;;;;;-145.18;100.00;60484.78;5014543;28;20034;-67
2022/01/05 04:01:04;;;;;;;6.67;1.17;;;;;;;-145.18;100.00;60484.78;5017962;28;20025;-67
2022/01/05 04:03:30;;;;;;;4.97;1.63;;;;;;;-145.18;100.00;60484.78;5014527;28;20022;-67
2022/01/05 04:05:55;;;;;;;5.73;1.20;;;;;;;-145.18;100.00;60484.78;5015382;28;20585;-67
2022/01/05 04:08:20;;;;;;;7.20;1.70;;;;;;;-145.18;100.00;60484.78;5016455;28;20083;-67
2022/01/05 04:10:46;;;;;;;11.20;1.53;;;;;;;-145.18;100.00;60484.78;5011816;28;20037;-67
2022/01/05 04:13:13;;;;;;;5.87;1.50;;;;;;;-145.18;100.00;60484.78;5017579;28;20398;-67
2022/01/05 04:15:38;;;;;;;2.87;1.27;;;;;;;-145.18;100.00;60484.78;5018215;28;20034;-67
2022/01/05 04:18:04;;;;;;;6.20;1.10;;;;;;;-145.18;100.00;60484.78;5020242;28;20026;-67
2022/01/05 04:20:29;;;;;;;9.63;1.87;;;;;;;-145.18;100.00;60484.78;5015452;28;20174;-67
2022/01/05 04:22:54;;;;;;;8.03;1.30;;;;;;;-145.18;100.00;60484.78;5020598;28;20029;-67
2022/01/05 04:25:20;;;;;;;6.80;1.40;;;;;;;-145.18;100.00;60484.78;5015394;28;20037;-67
2022/01/05 04:27:45;;;;;;;3.90;1.10;;;;;;;-145.18;100.00;60484.78;5018079;28;20081;-67
2022/01/05 04:30:12;;;;;;;2.47;1.10;;;;;;;-145.18;100.00;60484.78;5010434;28;20041;-67
2022/01/05 04:32:37;;;;;;;4.80;1.00;;;;;;;-145.18;100.00;60484.78;5016353;28;20270;-67
2022/01/05 04:35:03;;;;;;;6.10;1.10;;;;;;;-145.18;100.00;60484.78;5016031;28;20291;-67
2022/01/05 04:37:31;;;;;;;4.83;1.40;;;;;;;-145.18;100.00;60484.78;5019648;28;20025;-67
2022/01/05 04:39:57;;;;;;;4.07;1.37;;;;;;;-145.18;100.00;60484.78;5016473;28;20025;-67
2022/01/05 04:42:24;;;;;;;9.63;1.60;;;;;;;-145.18;100.00;60484.78;5014301;28;20593;-67
2022/01/05 04:44:50;;;;;;;8.40;2.00;;;;;;;-145.18;100.00;60484.78;5011852;28;20045;-67
2022/01/05 04:47:15;;;;;;;4.90;1.70;;;;;;;-145.18;100.00;60484.78;5016691;28;20033;-67
2022/01/05 04:49:41;;;;;;;7.93;1.37;;;;;;;-145.18;100.00;60484.78;5011495;28;20033;-67
2022/01/05 04:52:06;;;;;;;4.13;1.20;;;;;;;-145.18;100.00;60484.78;5014358;28;20116;-67
2022/01/05 04:54:32;;;;;;;6.67;1.53;;;;;;;-145.18;100.00;60484.78;5020667;28;20037;-67
2022/01/05 04:56:57;;;;;;;3.80;0.97;;;;;;;-145.18;100.00;60484.78;5017722;28;20029;-67
2022/01/05 04:59:23;;;;;;;10.27;1.73;;;;;;;-145.18;100.00;60484.78;5020465;28;20025;-66
2022/01/05 05:01:48;;;;;;;7.70;1.90;;;;;;;-145.18;100.00;60484.78;5016493;28;20052;-67
2022/01/05 05:04:13;;;;;;;5.13;1.63;;;;;;;-145.18;100.00;60484.78;5019888;28;20053;-67
2022/01/05 05:06:39;;;;;;;6.73;1.30;;;;;;;-145.18;100.00;60484.78;5014279;28;20033;-67
2022/01/05 05:09:04;;;;;;;9.10;1.50;;;;;;;-145.18;100.00;60484.78;5017755;28;20040;-67
2022/01/05 05:11:30;;;;;;;7.43;1.43;;;;;;;-145.18;100.00;60484.78;5016506;28;20087;-67
2022/01/05 05:13:55;;;;;;;19.00;2.50;;;;;;;-145.18;100.00;60484.78;5014867;28;20274;-67
2022/01/05 05:16:20;;;;;;;12.07;1.47;;;;;;;-145.18;100.00;60484.78;5014226;28;20025;-67
2022/01/05 05:18:46;;;;;;;4.80;1.53;;;;;;;-145.18;100.00;60484.78;5015438;28;20033;-67
2022/01/05 05:21:11;;;;;;;16.80;1.47;;;;;;;-145.18;100.00;60484.78;5015406;28;20274;-67
2022/01/05 05:23:37;;;;;;;7.83;1.47;;;;;;;-145.18;100.00;60484.78;5014668;28;20549;-67
2022/01/05 05:26:03;;;;;;;4.50;1.00;;;;;;;-145.18;100.00;60484.78;5020732;28;20041;-67
2022/01/05 05:28:28;;;;;;;2.33;1.20;;;;;;;-145.18;100.00;60484.78;5019535;28;20307;-67
2022/01/05 05:30:53;;;;;;;7.90;1.27;;;;;;;-145.18;100.00;60484.78;5018290;28;20025;-67
2022/01/05 05:33:19;;;;;;;15.07;1.63;;;;;;;-145.18;100.00;60484.78;5012628;28;20022;-67
2022/01/05 05:35:44;;;;;;;5.53;1.30;;;;;;;-145.18;100.00;60484.78;5019493;28;20041;-67
2022/01/05 05:38:11;;;;;;;5.23;1.33;;;;;;;-145.18;100.00;60484.78;5017354;28;20028;-67
2022/01/05 05:40:37;;;;;;;3.20;1.40;;;;;;;-145.18;100.00;60484.78;5017672;28;20037;-67
2022/01/05 05:43:02;;;;;;;6.90;1.70;;;;;;;-145.18;100.00;60484.78;5018017;28;20025;-67
2022/01/05 05:45:28;;;;;;;3.73;1.77;;;;;;;-145.18;100.00;60484.78;5011987;28;20370;-67
2022/01/05 05:47:53;;;;;;;9.00;1.37;;;;;;;-145.18;100.00;60484.78;5016959;28;20163;-67
2022/01/05 05:50:19;;;;;;;9.07;1.70;;;;;;;-145.18;100.00;60484.78;5018329;28;20177;-67
2022/01/05 05:52:45;;;;;;;2.90;1.33;;;;;;;-145.18;100.00;60484.78;5017289;28;20560;-67
2022/01/05 05:55:10;;;;;;;6.10;2.03;;;;;;;-145.18;100.00;60484.78;5017827;28;20119;-67
2022/01/05 05:57:36;;;;;;;1.87;1.07;;;;;;;-145.18;100.00;60484.78;5017651;28;20026;-67
2022/01/05 06:00:04;;;;;;;6.97;0.97;;;;;;;-145.18;100.00;60484.78;5016503;28;20039;-67
2022/01/05 06:02:30;;;;;;;6.13;1.23;;;;;;;-145.18;100.00;60484.78;5015614;28;20033;-67
2022/01/05 06:04:55;;;;;;;5.03;1.20;;;;;;;-145.18;100.00;60484.78;5016614;28;20508;-67
2022/01/05 06:07:20;;;;;;;14.60;2.13;;;;;;;-145.18;100.00;60484.78;5010469;28;20046;-67
2022/01/05 06:09:46;;;;;;;5.20;1.80;;;;;;;-145.18;100.00;60484.78;5013931;28;20478;-67
2022/01/05 06:12:11;;;;;;;8.37;1.17;;;;;;;-145.18;100.00;60484.78;5017015;28;20029;-67
2022/01/05 06:14:36;;;;;;;5.73;1.83;;;;;;;-145.18;100.00;60484.78;5015776;28;20606;-67
2022/01/05 06:17:02;;;;;;;10.03;1.80;;;;;;;-145.18;100.00;60484.78;5009917;28;20040;-68
2022/01/05 06:19:27;;;;;;;6.57;2.00;;;;;;;-145.18;100.00;60484.78;5016771;28;20021;-67
2022/01/05 06:21:53;;;;;;;5.93;1.47;;;;;;;-145.18;100.00;60484.78;5017144;28;20527;-67
2022/01/05 06:24:18;;;;;;;10.80;1.80;;;;;;;-145.18;100.00;60484.78;5012416;28;20026;-67
2022/01/05 06:26:45;;;;;;;7.03;1.50;;;;;;;-145.18;100.00;60484.78;5015999;28;20481;-67
2022/01/05 06:29:12;;;;;;;6.00;1.77;;;;;;;-145.18;100.00;60484.78;5014204;28;20041;-67
2022/01/05 06:31:38;;;;;;;13.00;1.90;;;;;;;-145.18;100.00;60484.78;5017487;28;20037;-67
2022/01/05 06:34:03;;;;;;;7.97;1.70;;;;;;;-145.18;100.00;60484.78;5018358;28;20363;-67
2022/01/05 06:36:29;;;;;;;7.57;1.90;;;;;;;-145.18;100.00;60484.78;5019358;28;20025;-67
2022/01/05 06:38:54;;;;;;;7.10;1.33;;;;;;;-145.18;100.00;60484.78;5010767;28;20033;-67
2022/01/05 06:41:19;;;;;;;7.23;2.00;;;;;;;-145.18;100.00;60484.78;5008821;28;20056;-67
2022/01/05 06:43:45;;;;;;;8.63;1.73;;;;;;;-145.18;100.00;60484.78;5013448;28;20068;-67
2022/01/05 06:46:10;;;;;;;9.53;1.83;;;;;;;-145.18;100.00;60484.78;5015144;28;20098;-67
2022/01/05 06:48:36;;;;;;;9.97;1.87;;;;;;;-145.18;100.00;60484.78;5009667;28;20041;-67
2022/01/05 06:51:01;;;;;;;7.73;2.53;;;;;;;-145.18;100.00;60484.78;5010417;28;20433;-67
2022/01/05 06:53:27;;;;;;;6.87;1.50;;;;;;;-145.18;100.00;60484.78;5009483;28;20414;-67
2022/01/05 06:55:53;;;;;;;9.67;2.17;;;;;;;-145.18;100.00;60484.78;5018329;28;20037;-67
2022/01/05 06:58:18;;;;;;;8.37;2.10;;;;;;;-145.18;100.00;60484.78;5016559;28;20043;-67
2022/01/05 07:00:44;;;;;;;7.17;2.03;;;;;;;-145.18;100.00;60484.78;5013174;28;20026;-67
2022/01/05 07:03:10;;;;;;;3.47;1.40;;;;;;;-145.18;100.00;60484.78;5014494;28;20093;-67
2022/01/05 07:05:36;;;;;;;4.00;1.23;;;;;;;-145.18;100.00;60484.78;5011063;28;20584;-67
2022/01/05 07:08:01;;;;;;;6.93;1.50;;;;;;;-145.18;100.00;60484.78;5011446;28;20172;-67
2022/01/05 07:10:26;;;;;;;12.07;1.70;;;;;;;-145.18;100.00;60484.78;5007690;28;20052;-67
2022/01/05 07:12:52;;;;;;;3.73;1.50;;;;;;;-145.18;100.00;60484.78;5014773;28;20597;-68
2022/01/05 07:15:17;;;;;;;3.80;1.47;;;;;;;-145.18;100.00;60484.78;5019190;28;20036;-67
2022/01/05 07:17:43;;;;;;;6.30;1.73;;;;;;;-145.18;100.00;60484.78;5018665;28;20057;-67
2022/01/05 07:20:09;;;;;;;11.93;2.27;;;;;;;-145.18;100.00;60484.78;5018484;28;20029;-67
2022/01/05 07:22:36;;;;;;;11.47;1.77;;;;;;;-145.18;100.00;60484.78;5018186;28;20029;-67
2022/01/05 07:25:03;;;;;;;9.83;1.97;;;;;;;-145.18;100.00;60484.78;5006521;28;20037;-67
2022/01/05 07:27:29;;;;;;;3.70;1.47;;;;;;;-145.18;100.00;60484.78;5018363;28;20084;-67
2022/01/05 07:29:54;;;;;;;8.93;2.43;;;;;;;-145.18;100.00;60484.78;5016836;28;20598;-67
2022/01/05 07:32:19;;;;;;;8.83;1.73;;;;;;;-145.18;100.00;60484.78;5017860;28;20391;-67
2022/01/05 07:34:45;;;;;;;6.40;1.50;;;;;;;-145.18;100.00;60484.78;5017810;28;20410;-67
2022/01/05 07:37:10;;;;;;;13.10;3.07;;;;;;;-145.18;100.00;60484.78;5018067;28;20032;-68
2022/01/05 07:39:36;;;;;;;6.13;1.50;;;;;;;-145.18;100.00;60484.78;5018332;28;20048;-67
2022/01/05 07:42:03;;;;;;;15.40;2.80;;;;;;;-145.18;100.00;60484.78;5018803;28;20095;-67
2022/01/05 07:44:28;;;;;;;9.03;1.63;;;;;;;-145.18;100.00;60484.78;5021748;28;20073;-67
2022/01/05 07:46:53;;;;;;;5.47;1.93;;;;;;;-145.18;100.00;60484.78;5021932;28;20088;-67
2022/01/05 07:49:19;;;;;;;14.77;1.80;;;;;;;-145.18;100.00;60484.78;5021875;28;20474;-67
2022/01/05 07:51:44;;;;;;;3.63;1.30;;;;;;;-145.18;100.00;60484.78;5014398;28;20367;-67
2022/01/05 07:54:09;;;;;;;6.97;1.67;;;;;;;-145.18;100.00;60484.78;5022051;28;20033;-67
2022/01/05 07:56:35;;;;;;;6.23;1.73;;;;;;;-145.18;100.00;60484.78;5022364;28;20437;-67
2022/01/05 07:59:00;;;;;;;9.37;2.90;;;;;;;-145.18;100.00;60484.78;5017549;28;20573;-68
2022/01/05 08:01:26;;;;;;;7.43;2.43;;;;;;;-145.18;100.00;60484.78;5022591;28;20481;-67
2022/01/05 08:03:52;;;;;;;11.93;2.13;;;;;;;-145.18;100.00;60484.78;5021005;28;20063;-68
2022/01/05 08:06:17;;;;;;;9.03;1.80;;;;;;;-145.18;100.00;60484.78;5022169;28;20071;-68
2022/01/05 08:08:44;;;;;;;4.40;1.50;;;;;;;1.93;100.00;-19217.72;5022118;28;20346;-68
2022/01/05 08:11:10;;;;;;;5.60;1.70;;;;;;;1.97;100.00;-19218.78;5021557;28;20037;-68
2022/01/05 08:13:36;;;;;;;4.00;1.30;;;;;;;2.02;100.00;-19220.13;5021773;28;20033;-68
2022/01/05 08:16:01;;;;;;;7.97;1.97;;;;;;;2.10;100.00;-19221.97;5021936;28;20416;-68
2022/01/05 08:18:27;;;;;;;12.93;2.47;;;;;;;2.21;100.00;-19224.91;5021958;28;20269;-68
2022/01/05 08:20:52;;;;;;;16.23;2.73;;;;;;;2.23;100.00;-19225.56;5022010;28;20037;-68
2022/01/05 08:23:20;;;;;;;10.00;2.93;;;;;;;2.25;100.00;-19226.09;5011032;28;20040;-68
2022/01/05 08:25:46;;;;;;;9.63;2.10;;;;;;;2.11;100.00;-19222.38;5019922;28;20033;-69
2022/01/05 08:28:11;;;;;;;7.30;2.00;;;;;;;2.05;100.00;-19220.78;5021665;28;20475;-68
2022/01/05 08:30:39;;;;;;;9.67;3.33;;;;;;;2.05;100.00;-19220.78;5022203;28;20032;-68
2022/01/05 08:33:05;;;;;;;9.47;2.07;;;;;;;2.07;100.00;-19221.31;5036128;28;20041;-68
2022/01/05 08:35:31;;;;;;;8.00;2.27;;;;;;;2.07;100.00;-19221.31;5021799;28;20032;-68
2022/01/05 08:37:57;;;;;;;8.13;2.47;;;;;;;2.08;100.00;-19221.44;5021179;28;20481;-68
2022/01/05 08:40:25;;;;;;;7.30;1.90;;;;;;;2.08;100.00;-19221.44;5021569;28;20165;-68
2022/01/05 08:42:52;;;;;;;10.17;2.07;;;;;;;2.11;100.00;-19222.38;5017662;28;20304;-68
2022/01/05 08:45:19;;;;;;;11.13;2.17;;;;;;;2.18;100.00;-19224.22;5021686;28;20033;-68
2022/01/05 08:47:49;;;;;;;8.47;2.30;;;;;;;2.26;100.00;-19226.22;5021110;28;20708;-68
2022/01/05 08:50:20;;;;;;;11.63;2.37;;;;;;;2.39;100.00;-19229.53;5021042;28;20116;-68
2022/01/05 08:52:47;;;;;;;11.23;2.92;;;;;;;2.49;100.00;-19232.19;5019261;28;20045;-68
2022/01/05 08:55:14;;;;;;;7.27;2.70;;;;;;;2.46;100.00;-19231.53;5019557;28;20505;-68
2022/01/05 08:57:40;;;;;;;8.30;2.60;;;;;;;2.48;100.00;-19231.94;5021344;28;20021;-68
2022/01/05 09:00:07;;;;;;;5.53;2.20;;;;;;;2.45;100.00;-19231.13;5021457;28;20504;-69
2022/01/05 09:02:32;;;;;;;11.30;3.27;;;;;;;2.39;100.00;-19229.53;5020210;28;20041;-68
2022/01/05 09:04:58;;;;;;;4.57;2.23;;;;;;;2.37;100.00;-19229.00;5020271;28;20052;-68
2022/01/05 09:07:24;;;;;;;9.47;4.07;;;;;;;2.35;100.00;-19228.75;5013954;28;20323;-69
2022/01/05 09:09:49;;;;;;;10.47;2.70;;;;;;;2.30;100.00;-19227.41;5020916;28;20288;-68
2022/01/05 09:12:15;;;;;;;9.33;1.80;;;;;;;2.24;100.00;-19225.69;5021215;28;20044;-69
2022/01/05 09:14:40;;;;;;;5.60;1.97;;;;;;;2.20;100.00;-19224.75;5020565;28;20651;-69
2022/01/05 09:17:07;;;;;;;9.33;2.20;;;;;;;2.14;100.00;-19223.03;5020482;28;20278;-69
2022/01/05 09:19:33;;;;;;;8.53;2.20;;;;;;;2.12;100.00;-19222.63;5020761;28;20025;-68
2022/01/05 09:21:59;;;;;;;3.97;1.70;;;;;;;2.07;100.00;-19221.31;5020775;28;20112;-68
2022/01/05 09:24:25;;;;;;;8.30;2.17;;;;;;;2.04;100.00;-11570.31;5020719;28;20030;-69
2022/01/05 09:26:51;;;;;;;4.50;1.80;;;;;;;2.01;100.00;-2938.78;5015936;28;20410;-69
2022/01/05 09:29:18;;;;;;;3.33;1.57;;;;;;;1.95;100.00;904.19;5015422;28;20467;-69
2022/01/05 09:31:43;;;;;;;3.80;1.93;;;;;;;1.87;100.00;6033.94;5020863;28;20378;-68
2022/01/05 09:34:09;;;;;;;4.47;1.70;;;;;;;1.85;100.00;12136.06;5019916;28;20021;-69
2022/01/05 09:36:40;;;;;;;5.67;1.80;;;;;;;1.77;100.00;17925.28;5020629;28;20029;-69
2022/01/05 09:42:00;;;;;;;4.10;1.90;;;;;;;1.84;100.00;30510.59;5009683;28;20121;-69
2022/01/05 09:44:41;;;;;;;4.03;1.80;;;;;;;1.88;100.00;36661.13;5019929;28;20021;-69
2022/01/05 09:47:45;;;;;;;2.17;1.30;;;;;;;1.88;100.00;40225.28;5020073;28;20025;-69
2022/01/05 09:50:13;;;;;;;4.63;2.37;;;;;;;1.75;100.00;39568.31;4970512;28;20038;-69
2022/01/05 09:52:41;;;;;;;2.67;1.53;;;;;;;1.67;100.00;43128.97;4966195;28;20259;-69
2022/01/05 09:55:08;;;;;;;3.53;1.83;;;;;;;1.58;100.00;47015.91;4972437;28;20042;-70
2022/01/05 09:57:35;;;;;;;3.70;1.57;;;;;;;1.44;100.00;50902.41;4977397;28;20029;-69
2022/01/05 10:00:01;;;;;;;6.37;1.97;;;;;;;1.35;100.00;56097.66;4977326;28;20038;-71
2022/01/05 10:02:26;;;;;;;7.17;2.53;;;;;;;1.24;100.00;63253.69;4977223;28;20114;-70
2022/01/05 10:04:52;;;;;;;5.23;1.80;;;;;;;1.22;100.00;69125.38;4976038;28;20489;-70
2022/01/05 10:07:18;;;;;;;4.70;1.60;;;;;;;1.08;100.00;74011.56;4977158;28;20458;-71
2022/01/05 10:09:46;;;;;;;6.77;2.07;;;;;;;0.94;100.00;76609.34;4972645;28;20070;-71
2022/01/05 10:12:13;;;;;;;2.97;1.60;;;;;;;0.68;100.00;79847.94;4977076;28;20049;-70
2022/01/05 10:14:44;;;;;;;4.00;1.60;;;;;;;0.53;100.00;85396.19;4974549;28;20117;-71
2022/01/05 10:17:13;;;;;;;6.45;2.20;;;;;;;0.43;100.00;90300.50;4977513;28;20027;-69
2022/01/05 10:19:40;;;;;;;3.97;1.70;;;;;;;0.40;100.00;95551.25;4975629;28;20045;-67
2022/01/05 10:22:43;;;;;;;3.13;1.50;;;;;;;0.37;100.00;100481.09;4972789;28;20058;-66
2022/01/05 10:25:23;;;;;;;4.27;2.10;;;;;;;0.33;100.00;105084.25;4977270;28;20403;-66
2022/01/05 10:27:59;;;;;;;3.60;1.50;;;;;;;0.33;100.00;109041.44;4999022;28;20513;-67
2022/01/05 10:30:39;;;;;;;3.67;2.13;;;;;;;0.42;100.00;112690.47;5019900;28;20060;-66
2022/01/05 10:33:05;;;;;;;6.67;2.50;;;;;;;0.53;100.00;115687.03;5019227;28;20182;-66
2022/01/05 10:35:31;;;;;;;6.00;2.00;;;;;;;0.67;100.00;118361.34;5016345;28;20203;-66
2022/01/05 10:37:59;;;;;;;6.33;2.03;;;;;;;0.80;100.00;119381.56;5018076;28;20182;-66
2022/01/05 10:40:25;;;;;;;3.90;1.70;;;;;;;0.94;100.00;120404.59;5019369;28;20516;-66
2022/01/05 10:42:54;;;;;;;6.70;2.33;;;;;;;1.05;100.00;120759.06;5019045;28;20547;-67
2022/01/05 10:45:47;;;;;;;3.50;1.50;;;;;;;1.21;100.00;121122.16;5019144;28;20537;-67
2022/01/05 10:48:15;;;;;;;5.47;1.80;;;;;;;1.18;100.00;121117.94;5011988;28;20030;-68
2022/01/05 10:50:42;;;;;;;6.03;2.27;;;;;;;1.26;100.00;121464.31;5018436;28;20095;-69
2022/01/05 10:53:08;;;;;;;5.40;1.63;;;;;;;1.40;100.00;122158.44;5019225;28;20482;-70
2022/01/05 10:55:43;;;;;;;4.70;2.10;;;;;;;1.55;100.00;122189.25;5019105;28;20025;-71
2022/01/05 10:58:11;;;;;;;5.77;2.53;;;;;;;1.51;100.00;121847.91;5015666;28;20029;-71
2022/01/05 11:00:39;;;;;;;4.67;1.60;;;;;;;1.52;100.00;121519.28;5018218;28;20033;-71
2022/01/05 11:03:26;;;;;;;3.93;1.63;;;;;;;1.57;100.00;122525.38;5018466;28;20191;-71
2022/01/05 11:06:13;;;;;;;3.87;1.90;;;;;;;1.72;100.00;124217.72;5018527;28;20077;-71
2022/01/05 11:08:53;;;;;;;3.83;1.83;;;;;;;1.92;100.00;124923.31;5017864;28;20532;-71
2022/01/05 11:11:37;;;;;;;4.90;2.00;;;;;;;2.01;100.00;125276.34;5014203;28;20041;-70